createdAt,value
2018-10-16T00:00:18.869Z,11.80
2018-10-16T00:02:49.395Z,13.73
2018-10-16T00:05:19.748Z,13.90
2018-10-16T00:07:49.147Z,11.33
2018-10-16T00:10:24.288Z,11.43
2018-10-16T00:12:53.719Z,11.73
2018-10-16T00:15:23.149Z,10.53
2018-10-16T00:17:52.363Z,12.93
2018-10-16T00:20:21.681Z,12.25
2018-10-16T00:22:51.205Z,13.18
2018-10-16T00:25:20.481Z,13.30
2018-10-16T00:27:49.696Z,12.97
2018-10-16T00:30:19.854Z,15.00
2018-10-16T00:32:49.345Z,11.25
2018-10-16T00:35:18.568Z,12.93
2018-10-16T00:37:47.812Z,12.33
2018-10-16T00:40:17.626Z,15.45
2018-10-16T00:42:46.796Z,13.07
2018-10-16T00:45:22.342Z,13.60
2018-10-16T00:47:51.569Z,10.93
2018-10-16T00:50:21.016Z,10.78
2018-10-16T00:52:50.290Z,11.17
2018-10-16T00:55:19.480Z,13.80
2018-10-16T00:57:49.197Z,12.00
2018-10-16T01:00:18.608Z,16.95
2018-10-16T01:02:47.827Z,14.67
2018-10-16T01:05:17.197Z,11.43
2018-10-16T01:07:46.948Z,13.45
2018-10-16T01:10:17.181Z,13.65
2018-10-16T01:12:46.763Z,13.27
2018-10-16T01:15:16.451Z,16.63
2018-10-16T01:17:45.806Z,11.70
2018-10-16T01:20:15.280Z,11.78
2018-10-16T01:22:44.598Z,14.77
2018-10-16T01:25:14.130Z,16.60
2018-10-16T01:27:43.527Z,13.53
2018-10-16T01:30:13.449Z,13.30
2018-10-16T01:32:43.725Z,13.03
2018-10-16T01:35:13.788Z,13.93
2018-10-16T01:37:43.260Z,16.73
2018-10-16T01:40:13.186Z,16.17
2018-10-16T01:42:43.394Z,12.23
2018-10-16T01:45:14.407Z,11.63
2018-10-16T01:47:44.025Z,13.77
2018-10-16T01:50:13.338Z,11.18
2018-10-16T01:52:42.494Z,12.03
2018-10-16T01:55:13.739Z,14.27
2018-10-16T01:57:43.650Z,13.65
2018-10-16T02:00:13.480Z,13.00
2018-10-16T02:02:42.701Z,11.03
2018-10-16T02:05:11.952Z,13.03
2018-10-16T02:07:41.178Z,13.17
2018-10-16T02:10:10.657Z,11.63
2018-10-16T02:12:39.892Z,14.10
2018-10-16T02:15:09.606Z,11.30
2018-10-16T02:17:39.629Z,14.87
2018-10-16T02:20:09.639Z,14.43
2018-10-16T02:22:39.769Z,12.90
2018-10-16T02:25:10.000Z,12.18
2018-10-16T02:27:39.796Z,10.72
2018-10-16T02:30:09.047Z,13.95
2018-10-16T02:32:38.577Z,11.20
2018-10-16T02:35:11.079Z,12.57
2018-10-16T02:37:40.489Z,12.10
2018-10-16T02:40:11.896Z,10.73
2018-10-16T02:42:41.390Z,11.35
2018-10-16T02:45:12.265Z,10.43
2018-10-16T02:47:41.813Z,10.93
2018-10-16T02:50:13.273Z,11.97
2018-10-16T02:52:43.600Z,11.70
2018-10-16T02:55:13.891Z,10.63
2018-10-16T02:57:43.276Z,13.95
2018-10-16T03:00:12.421Z,11.43
2018-10-16T03:02:41.982Z,10.82
2018-10-16T03:05:11.369Z,9.87
2018-10-16T03:07:42.183Z,10.05
2018-10-16T03:10:12.799Z,10.53
2018-10-16T03:12:43.292Z,12.97
2018-10-16T03:15:13.770Z,11.73
2018-10-16T03:17:43.735Z,11.00
2018-10-16T03:20:13.077Z,12.60
2018-10-16T03:22:45.542Z,12.43
2018-10-16T03:25:15.533Z,10.83
2018-10-16T03:27:45.024Z,12.33
2018-10-16T03:30:15.150Z,11.37
2018-10-16T03:32:44.305Z,12.10
2018-10-16T03:35:13.710Z,9.97
2018-10-16T03:37:44.557Z,12.60
2018-10-16T03:40:14.054Z,10.28
2018-10-16T03:42:43.807Z,10.20
2018-10-16T03:45:14.704Z,8.37
2018-10-16T03:47:44.425Z,10.23
2018-10-16T03:50:14.541Z,11.73
2018-10-16T03:52:44.263Z,11.20
2018-10-16T03:55:13.910Z,12.47
2018-10-16T03:57:43.222Z,13.13
2018-10-16T04:00:13.020Z,11.20
2018-10-16T04:02:45.799Z,13.63
2018-10-16T04:05:15.162Z,10.50
2018-10-16T04:07:44.485Z,13.67
2018-10-16T04:10:14.181Z,11.23
2018-10-16T04:12:44.000Z,11.93
2018-10-16T04:15:14.969Z,12.05
2018-10-16T04:17:44.449Z,12.53
2018-10-16T04:20:15.377Z,11.68
2018-10-16T04:22:45.829Z,14.93
2018-10-16T04:25:20.873Z,11.07
2018-10-16T04:27:50.335Z,12.60
2018-10-16T04:30:20.543Z,14.68
2018-10-16T04:32:49.988Z,10.50
2018-10-16T04:35:19.605Z,16.37
2018-10-16T04:37:49.544Z,11.07
2018-10-16T04:40:20.268Z,13.20
2018-10-16T04:42:49.825Z,13.73
2018-10-16T04:45:25.280Z,10.10
2018-10-16T04:47:56.532Z,12.43
2018-10-16T04:50:26.256Z,11.65
2018-10-16T04:52:57.235Z,12.10
2018-10-16T04:55:28.192Z,11.33
2018-10-16T04:57:59.647Z,12.20
2018-10-16T05:00:30.434Z,14.80
2018-10-16T05:03:01.774Z,9.53
2018-10-16T05:05:32.993Z,11.20
2018-10-16T05:08:04.400Z,12.63
2018-10-16T05:10:35.875Z,12.97
2018-10-16T05:13:06.351Z,12.13
2018-10-16T05:15:37.601Z,9.00
2018-10-16T05:18:09.461Z,12.30
2018-10-16T05:20:38.845Z,12.75
2018-10-16T05:23:09.948Z,10.18
2018-10-16T05:25:43.790Z,11.43
2018-10-16T05:28:14.568Z,10.58
2018-10-16T05:30:44.902Z,11.70
2018-10-16T05:33:16.174Z,11.85
2018-10-16T05:35:47.103Z,10.70
2018-10-16T05:38:16.933Z,12.13
2018-10-16T05:40:47.441Z,12.27
2018-10-16T05:43:20.228Z,10.40
2018-10-16T05:45:50.804Z,11.43
2018-10-16T05:48:21.028Z,12.23
2018-10-16T05:50:51.938Z,13.07
2018-10-16T05:53:22.998Z,14.78
2018-10-16T05:56:05.470Z,11.43
2018-10-16T05:58:39.049Z,12.27
2018-10-16T06:01:12.282Z,10.70
2018-10-16T06:03:44.000Z,13.07
2018-10-16T06:06:14.757Z,13.70
2018-10-16T06:08:44.705Z,13.10
2018-10-16T06:11:17.296Z,13.80
2018-10-16T06:13:46.733Z,14.73
2018-10-16T06:16:16.035Z,17.40
2018-10-16T06:18:45.368Z,16.10
2018-10-16T06:21:14.679Z,17.27
2018-10-16T06:23:44.294Z,17.77
2018-10-16T06:26:13.975Z,16.63
2018-10-16T06:28:43.558Z,12.70
2018-10-16T06:31:13.222Z,14.77
2018-10-16T06:33:43.062Z,13.37
2018-10-16T06:36:12.321Z,16.20
2018-10-16T06:38:41.647Z,12.93
2018-10-16T06:41:11.425Z,17.48
2018-10-16T06:43:40.563Z,12.07
2018-10-16T06:46:09.755Z,13.45
2018-10-16T06:48:39.691Z,14.27
2018-10-16T06:51:08.484Z,14.87
2018-10-16T06:53:37.753Z,12.07
2018-10-16T06:56:07.373Z,12.13
2018-10-16T06:58:36.465Z,14.50
2018-10-16T07:01:06.036Z,18.53
2018-10-16T07:03:35.275Z,17.27
2018-10-16T07:06:04.535Z,14.50
2018-10-16T07:08:33.833Z,11.70
2018-10-16T07:11:03.147Z,11.33
2018-10-16T07:13:32.501Z,13.80
2018-10-16T07:16:01.844Z,9.30
2018-10-16T07:18:31.431Z,12.30
2018-10-16T07:21:00.749Z,9.95
2018-10-16T07:23:30.174Z,12.40
2018-10-16T07:25:59.388Z,10.90
2018-10-16T07:28:28.929Z,11.77
2018-10-16T07:30:58.187Z,16.57
2018-10-16T07:33:27.313Z,16.07
2018-10-16T07:35:56.558Z,15.43
2018-10-16T07:38:25.898Z,11.28
2018-10-16T07:40:54.989Z,9.93
2018-10-16T07:43:24.086Z,11.57
2018-10-16T07:45:53.245Z,12.30
2018-10-16T07:48:23.128Z,8.83
2018-10-16T07:50:52.209Z,11.87
2018-10-16T07:53:21.613Z,12.07
2018-10-16T07:55:50.855Z,9.10
2018-10-16T07:58:20.286Z,13.50
2018-10-16T08:00:49.436Z,10.55
2018-10-16T08:03:19.226Z,10.73
2018-10-16T08:05:48.382Z,11.95
2018-10-16T08:08:17.694Z,15.90
2018-10-16T08:10:47.772Z,12.73
2018-10-16T08:13:17.632Z,10.80
2018-10-16T08:15:46.921Z,9.33
2018-10-16T08:18:16.355Z,8.63
2018-10-16T08:20:45.861Z,7.67
2018-10-16T08:23:15.606Z,8.27
2018-10-16T08:25:44.915Z,12.25
2018-10-16T08:28:14.385Z,9.23
2018-10-16T08:30:43.926Z,10.23
2018-10-16T08:33:13.417Z,8.38
2018-10-16T08:35:43.784Z,10.37
2018-10-16T08:40:21.517Z,9.93
2018-10-16T08:43:19.298Z,7.77
2018-10-16T08:46:05.570Z,9.90
2018-10-16T08:48:52.041Z,15.20
2018-10-16T08:51:40.416Z,12.73
2018-10-16T08:54:10.599Z,12.67
2018-10-16T08:56:39.933Z,8.27
2018-10-16T08:59:09.015Z,9.70
2018-10-16T09:01:38.430Z,10.17
2018-10-16T09:04:07.661Z,11.90
2018-10-16T09:06:36.943Z,10.13
2018-10-16T09:09:11.402Z,20.90
2018-10-16T09:11:41.915Z,23.87
2018-10-16T09:14:11.477Z,23.20
2018-10-16T09:16:40.757Z,25.73
2018-10-16T09:19:10.026Z,28.43
2018-10-16T09:21:39.307Z,19.17
2018-10-16T09:24:08.471Z,20.60
2018-10-16T09:26:37.560Z,24.67
2018-10-16T09:29:06.893Z,33.63
2018-10-16T09:31:36.026Z,16.53
2018-10-16T09:34:05.727Z,22.63
2018-10-16T09:36:34.943Z,23.50
2018-10-16T09:39:06.393Z,26.37
2018-10-16T09:41:35.574Z,27.27
2018-10-16T09:44:05.031Z,21.17
2018-10-16T09:46:34.616Z,19.17
2018-10-16T09:49:03.988Z,17.65
2018-10-16T09:51:33.460Z,11.73
2018-10-16T09:54:03.961Z,12.10
2018-10-16T09:56:33.532Z,19.73
2018-10-16T09:59:02.841Z,24.03
2018-10-16T10:01:37.562Z,14.85
2018-10-16T10:04:07.473Z,37.90
2018-10-16T10:06:37.487Z,23.67
2018-10-16T10:09:11.150Z,16.43
2018-10-16T10:11:41.280Z,20.07
2018-10-16T10:14:10.916Z,26.43
2018-10-16T10:16:40.586Z,20.53
2018-10-16T10:19:10.044Z,29.80
2018-10-16T10:21:39.720Z,17.27
2018-10-16T10:24:08.962Z,10.10
2018-10-16T10:26:38.111Z,14.50
2018-10-16T10:29:08.254Z,8.80
2018-10-16T10:31:37.373Z,8.13
2018-10-16T10:34:06.906Z,11.23
2018-10-16T10:36:36.761Z,10.55
2018-10-16T10:39:10.494Z,7.70
2018-10-16T10:41:40.131Z,7.65
2018-10-16T10:44:09.900Z,13.00
2018-10-16T10:46:39.693Z,13.18
2018-10-16T10:49:09.332Z,9.18
2018-10-16T10:51:39.121Z,6.27
2018-10-16T10:54:08.251Z,7.10
2018-10-16T10:56:37.750Z,6.30
2018-10-16T10:59:07.036Z,6.97
2018-10-16T11:01:36.759Z,7.25
2018-10-16T11:04:06.743Z,7.45
2018-10-16T11:06:36.230Z,7.33
2018-10-16T11:09:09.051Z,7.93
2018-10-16T11:11:38.190Z,7.93
2018-10-16T11:14:07.680Z,7.27
2018-10-16T11:16:37.293Z,7.90
2018-10-16T11:19:06.700Z,6.17
2018-10-16T11:21:35.976Z,7.27
2018-10-16T11:24:06.157Z,6.42
2018-10-16T11:26:35.946Z,6.37
2018-10-16T11:29:05.341Z,6.23
2018-10-16T11:31:34.673Z,6.00
2018-10-16T11:34:05.072Z,7.03
2018-10-16T11:36:34.183Z,7.70
2018-10-16T11:39:05.150Z,5.57
2018-10-16T11:41:34.585Z,7.47
2018-10-16T11:44:03.918Z,5.90
2018-10-16T11:46:33.050Z,6.87
2018-10-16T11:49:02.500Z,9.08
2018-10-16T11:51:31.985Z,6.40
2018-10-16T11:54:01.331Z,5.43
2018-10-16T11:56:30.531Z,7.87
2018-10-16T11:58:59.928Z,7.53
2018-10-16T12:01:29.108Z,6.20
2018-10-16T12:03:58.305Z,5.73
2018-10-16T12:06:27.606Z,8.45
2018-10-16T12:08:56.902Z,6.40
2018-10-16T12:11:25.972Z,7.47
2018-10-16T12:13:58.165Z,6.40
2018-10-16T12:16:30.776Z,8.47
2018-10-16T12:19:04.774Z,7.62
2018-10-16T12:21:33.998Z,5.73
2018-10-16T12:24:04.278Z,8.80
2018-10-16T12:26:33.685Z,8.17
2018-10-16T12:29:03.172Z,6.10
2018-10-16T12:31:32.338Z,6.10
2018-10-16T12:34:01.623Z,7.73
2018-10-16T12:36:31.776Z,7.07
2018-10-16T12:39:01.216Z,6.97
2018-10-16T12:41:30.541Z,5.30
2018-10-16T12:44:00.271Z,7.33
2018-10-16T12:46:29.553Z,6.10
2018-10-16T12:48:58.843Z,6.43
2018-10-16T12:51:29.442Z,6.73
2018-10-16T12:53:58.825Z,9.10
2018-10-16T12:56:28.090Z,8.77
2018-10-16T12:58:57.988Z,5.65
2018-10-16T13:01:27.153Z,11.18
2018-10-16T13:03:56.702Z,6.37
2018-10-16T13:06:26.727Z,5.10
2018-10-16T13:08:56.500Z,4.73
2018-10-16T13:11:25.762Z,6.67
2018-10-16T13:13:55.121Z,10.07
2018-10-16T13:16:24.436Z,5.33
2018-10-16T13:18:53.720Z,5.67
2018-10-16T13:21:22.805Z,5.85
2018-10-16T13:23:52.568Z,7.10
2018-10-16T13:26:21.974Z,5.33
2018-10-16T13:28:51.834Z,5.83
2018-10-16T13:31:21.472Z,6.20
2018-10-16T13:33:51.337Z,6.50
2018-10-16T13:36:20.456Z,6.33
2018-10-16T13:38:49.954Z,7.67
2018-10-16T13:41:19.230Z,7.23
2018-10-16T13:43:48.508Z,5.80
2018-10-16T13:46:17.964Z,6.60
2018-10-16T13:48:47.370Z,6.87
2018-10-16T13:51:16.595Z,11.43
2018-10-16T13:53:46.177Z,8.23
2018-10-16T13:56:15.462Z,7.90
2018-10-16T13:58:44.636Z,6.25
2018-10-16T14:01:14.010Z,9.15
2018-10-16T14:03:43.286Z,8.30
2018-10-16T14:06:12.578Z,7.33
2018-10-16T14:08:42.485Z,9.23
2018-10-16T14:11:11.769Z,9.00
2018-10-16T14:13:40.957Z,6.77
2018-10-16T14:16:10.257Z,13.10
2018-10-16T14:18:40.025Z,7.73
2018-10-16T14:21:09.219Z,8.80
2018-10-16T14:23:38.485Z,8.00
2018-10-16T14:26:07.779Z,7.03
2018-10-16T14:28:37.051Z,6.57
2018-10-16T14:31:06.717Z,7.85
2018-10-16T14:33:35.994Z,7.97
2018-10-16T14:36:05.377Z,8.33
2018-10-16T14:38:34.631Z,7.20
2018-10-16T14:41:03.872Z,8.63
2018-10-16T14:43:33.246Z,7.50
2018-10-16T14:46:03.283Z,7.58
2018-10-16T14:48:33.278Z,7.65
2018-10-16T14:51:02.470Z,6.20
2018-10-16T14:53:31.699Z,12.47
2018-10-16T14:56:00.873Z,7.22
2018-10-16T14:58:30.003Z,7.78
2018-10-16T15:00:59.158Z,9.40
2018-10-16T15:03:28.829Z,10.50
2018-10-16T15:05:58.249Z,7.70
2018-10-16T15:08:28.116Z,7.40
2018-10-16T15:10:57.533Z,8.50
2018-10-16T15:13:26.810Z,10.20
2018-10-16T15:15:55.924Z,11.77
2018-10-16T15:18:25.285Z,9.77
2018-10-16T15:20:54.817Z,8.93
2018-10-16T15:23:23.923Z,6.47
2018-10-16T15:25:53.323Z,10.60
2018-10-16T15:31:01.386Z,12.20
2018-10-16T15:33:30.716Z,7.43
2018-10-16T15:36:00.383Z,9.23
2018-10-16T15:38:29.837Z,7.13
2018-10-16T15:40:59.810Z,9.23
2018-10-16T15:43:29.500Z,7.53
2018-10-16T15:45:58.799Z,5.85
2018-10-16T15:48:27.873Z,7.47
2018-10-16T15:50:57.189Z,7.47
2018-10-16T15:53:26.662Z,10.63
2018-10-16T15:55:56.943Z,9.10
2018-10-16T15:58:26.068Z,7.13
2018-10-16T16:00:55.355Z,8.50
2018-10-16T16:03:24.866Z,13.70
2018-10-16T16:05:54.595Z,10.67
2018-10-16T16:08:24.256Z,7.80
2018-10-16T16:10:53.551Z,10.07
2018-10-16T16:13:22.655Z,7.20
2018-10-16T16:15:51.951Z,7.90
2018-10-16T16:18:21.985Z,10.33
2018-10-16T16:20:51.195Z,11.33
2018-10-16T16:23:20.770Z,8.20
2018-10-16T16:25:49.938Z,6.90
2018-10-16T16:28:18.937Z,8.08
2018-10-16T16:30:48.229Z,11.35
2018-10-16T16:33:17.743Z,8.70
2018-10-16T16:35:48.465Z,15.83
2018-10-16T16:38:17.774Z,10.00
2018-10-16T16:40:47.279Z,8.63
2018-10-16T16:43:16.710Z,9.07
2018-10-16T16:45:46.601Z,9.33
2018-10-16T16:48:15.867Z,8.73
2018-10-16T16:50:45.372Z,13.33
2018-10-16T16:53:15.191Z,10.77
2018-10-16T16:55:44.673Z,8.93
2018-10-16T16:58:14.031Z,13.05
2018-10-16T17:00:43.378Z,10.43
2018-10-16T17:03:12.838Z,8.78
2018-10-16T17:05:42.622Z,9.03
2018-10-16T17:08:12.166Z,9.33
2018-10-16T17:10:42.262Z,10.53
2018-10-16T17:13:11.708Z,11.30
2018-10-16T17:15:41.886Z,10.38
2018-10-16T17:18:11.660Z,12.35
2018-10-16T17:20:42.024Z,11.40
2018-10-16T17:23:11.138Z,10.68
2018-10-16T17:25:41.666Z,7.90
2018-10-16T17:28:10.906Z,11.50
2018-10-16T17:30:41.847Z,9.60
2018-10-16T17:33:11.317Z,9.63
2018-10-16T17:35:40.782Z,8.60
2018-10-16T17:38:10.134Z,10.03
2018-10-16T17:40:39.877Z,7.90
2018-10-16T17:43:10.121Z,11.20
2018-10-16T17:45:40.459Z,9.95
2018-10-16T17:48:09.881Z,9.90
2018-10-16T17:50:39.223Z,10.98
2018-10-16T17:53:08.505Z,7.97
2018-10-16T17:55:37.681Z,11.67
2018-10-16T17:58:08.538Z,9.63
2018-10-16T18:00:37.679Z,11.47
2018-10-16T18:03:07.296Z,7.13
2018-10-16T18:05:36.595Z,7.43
2018-10-16T18:08:06.562Z,10.13
2018-10-16T18:10:35.876Z,9.67
2018-10-16T18:13:05.613Z,9.10
2018-10-16T18:15:34.969Z,9.68
2018-10-16T18:18:04.582Z,10.50
2018-10-16T18:20:33.782Z,10.17
2018-10-16T18:23:03.136Z,10.23
2018-10-16T18:25:32.486Z,10.70
2018-10-16T18:28:02.074Z,8.67
2018-10-16T18:30:31.582Z,7.27
2018-10-16T18:33:01.378Z,7.20
2018-10-16T18:35:30.340Z,9.23
2018-10-16T18:37:59.779Z,8.83
2018-10-16T18:40:30.185Z,8.63
2018-10-16T18:43:00.070Z,7.17
2018-10-16T18:45:29.652Z,7.90
2018-10-16T18:47:59.043Z,10.07
2018-10-16T18:50:28.856Z,13.03
2018-10-16T18:52:58.138Z,7.63
2018-10-16T18:55:27.681Z,9.90
2018-10-16T18:57:58.213Z,10.30
2018-10-16T19:00:27.370Z,10.87
2018-10-16T19:02:57.750Z,11.33
2018-10-16T19:05:27.061Z,7.90
2018-10-16T19:07:56.404Z,7.93
2018-10-16T19:10:25.706Z,11.47
2018-10-16T19:12:55.162Z,8.20
2018-10-16T19:15:24.646Z,8.97
2018-10-16T19:17:54.088Z,7.40
2018-10-16T19:20:23.737Z,7.23
2018-10-16T19:22:53.953Z,8.77
2018-10-16T19:25:23.897Z,8.43
2018-10-16T19:27:53.120Z,8.40
2018-10-16T19:30:22.832Z,7.30
2018-10-16T19:32:53.404Z,14.57
2018-10-16T19:35:23.465Z,8.18
2018-10-16T19:37:54.425Z,9.80
2018-10-16T19:40:23.637Z,8.13
2018-10-16T19:42:53.160Z,7.17
2018-10-16T19:45:22.454Z,7.40
2018-10-16T19:47:52.795Z,7.90
2018-10-16T19:50:24.437Z,7.37
2018-10-16T19:52:54.233Z,8.13
2018-10-16T19:55:23.519Z,6.80
2018-10-16T19:57:52.917Z,10.60
2018-10-16T20:00:22.554Z,8.70
2018-10-16T20:02:51.706Z,7.67
2018-10-16T20:05:27.093Z,8.93
2018-10-16T20:07:56.610Z,8.68
2018-10-16T20:10:25.885Z,8.73
2018-10-16T20:12:55.537Z,8.13
2018-10-16T20:15:25.411Z,9.68
2018-10-16T20:17:55.074Z,8.03
2018-10-16T20:20:24.608Z,9.67
2018-10-16T20:22:53.905Z,8.30
2018-10-16T20:25:23.603Z,9.60
2018-10-16T20:27:52.862Z,8.83
2018-10-16T20:30:22.222Z,10.75
2018-10-16T20:32:51.484Z,10.87
2018-10-16T20:35:22.357Z,8.17
2018-10-16T20:37:51.768Z,8.20
2018-10-16T20:40:20.937Z,7.93
2018-10-16T20:42:50.201Z,9.17
2018-10-16T20:45:19.539Z,12.87
2018-10-16T20:47:48.703Z,8.90
2018-10-16T20:50:17.985Z,11.73
2018-10-16T20:52:48.597Z,8.45
2018-10-16T20:55:17.761Z,9.83
2018-10-16T20:57:46.979Z,10.08
2018-10-16T21:00:16.216Z,9.10
2018-10-16T21:02:45.673Z,8.40
2018-10-16T21:05:15.198Z,7.30
2018-10-16T21:07:44.182Z,8.60
2018-10-16T21:10:14.578Z,11.90
2018-10-16T21:12:44.832Z,11.47
2018-10-16T21:15:14.793Z,10.83
2018-10-16T21:17:44.009Z,14.43
2018-10-16T21:20:13.927Z,9.83
2018-10-16T21:22:43.118Z,10.07
2018-10-16T21:25:12.311Z,9.80
2018-10-16T21:27:41.408Z,10.73
2018-10-16T21:30:11.206Z,12.80
2018-10-16T21:32:40.615Z,9.50
2018-10-16T21:35:09.919Z,11.33
2018-10-16T21:37:39.713Z,10.88
2018-10-16T21:40:09.439Z,12.45
2018-10-16T21:42:38.574Z,10.23
2018-10-16T21:45:07.844Z,11.53
2018-10-16T21:47:37.444Z,10.30
2018-10-16T21:50:06.697Z,9.00
2018-10-16T21:52:35.966Z,9.60
2018-10-16T21:55:05.901Z,10.23
2018-10-16T21:57:35.000Z,9.70
2018-10-16T22:00:04.233Z,9.37
2018-10-16T22:02:39.896Z,11.13
2018-10-16T22:05:09.063Z,9.07
2018-10-16T22:07:38.208Z,8.97
2018-10-16T22:10:07.459Z,9.88
2018-10-16T22:12:36.644Z,8.97
2018-10-16T22:15:06.173Z,11.57
2018-10-16T22:17:35.543Z,9.27
2018-10-16T22:20:05.252Z,12.37
2018-10-16T22:22:34.465Z,9.53
2018-10-16T22:25:03.622Z,9.73
2018-10-16T22:27:32.789Z,10.97
2018-10-16T22:30:02.082Z,7.57
2018-10-16T22:32:31.910Z,7.80
2018-10-16T22:35:01.458Z,8.50
2018-10-16T22:37:30.549Z,8.47
2018-10-16T22:39:59.814Z,10.10
2018-10-16T22:42:29.275Z,9.27
2018-10-16T22:44:58.758Z,12.58
2018-10-16T22:47:28.305Z,10.43
2018-10-16T22:49:57.458Z,8.13
2018-10-16T22:52:27.548Z,8.48
2018-10-16T22:54:56.632Z,7.17
2018-10-16T22:57:26.817Z,8.13
2018-10-16T22:59:56.480Z,8.13
2018-10-16T23:02:25.517Z,7.53
2018-10-16T23:04:54.888Z,8.60
2018-10-16T23:07:23.940Z,10.90
2018-10-16T23:09:53.018Z,9.23
2018-10-16T23:12:22.280Z,10.27
2018-10-16T23:14:51.385Z,8.87
2018-10-16T23:17:20.466Z,9.67
2018-10-16T23:19:49.731Z,9.73
2018-10-16T23:22:19.009Z,9.53
2018-10-16T23:24:48.040Z,11.27
2018-10-16T23:27:17.277Z,11.30
2018-10-16T23:29:46.368Z,9.70
2018-10-16T23:32:15.487Z,9.27
2018-10-16T23:34:44.627Z,9.05
2018-10-16T23:37:14.348Z,9.37
2018-10-16T23:39:44.102Z,11.93
2018-10-16T23:42:14.476Z,10.13
2018-10-16T23:44:44.101Z,10.17
2018-10-16T23:47:13.552Z,11.23
2018-10-16T23:49:42.740Z,14.30
2018-10-16T23:52:11.841Z,9.77
2018-10-16T23:54:40.999Z,8.60
2018-10-16T23:57:10.081Z,9.63
2018-10-16T23:59:39.192Z,8.97
